.
WxDataArchive / Data Records for 2015-01-25
2015-01-24 January 2015 2015-01-26

Data Records for Sunday, 25 January 2015

Time	Temp	Chill	HIndex	Humid	Dewpt	 Wind 	HiWind	WindDir	Rain 	Barom
-----	----	-----	------	-----	-----	------	------	-------	-----	-----
00:00	36.3	36.3	36.3	87	32.8	0	2	292	0.00	29.706 
00:05	36.3	36.3	36.3	87	32.8	0	1	292	0.00	29.706 
00:10	36.5	36.5	36.5	87	33.0	0	1	292	0.00	29.706 
00:15	36.5	36.5	36.5	87	33.0	0	0	---	0.00	29.703 
00:20	36.5	36.5	36.5	88	33.3	0	1	292	0.00	29.703 
00:25	36.5	36.5	36.5	87	33.0	0	2	292	0.00	29.703 
00:30	36.5	36.5	36.5	88	33.3	0	0	---	0.00	29.701 
00:35	36.5	36.5	36.5	88	33.3	0	1	292	0.00	29.701 
00:40	36.5	36.5	36.5	88	33.3	0	1	292	0.00	29.701 
00:45	36.5	36.5	36.5	88	33.3	0	0	---	0.00	29.697 
00:50	36.5	36.5	36.5	88	33.3	0	1	292	0.00	29.697 
00:55	36.5	36.5	36.5	88	33.3	0	1	292	0.00	29.697 
01:00	36.5	36.5	36.5	88	33.3	0	1	292	0.00	29.696 
01:05	36.5	36.5	36.5	88	33.3	0	1	292	0.00	29.696 
01:10	36.5	36.5	36.5	88	33.3	0	1	292	0.00	29.696 
01:15	36.5	36.5	36.5	88	33.3	0	1	292	0.00	29.698 
01:20	36.5	36.5	36.5	88	33.3	0	1	292	0.00	29.698 
01:25	36.5	36.5	36.5	88	33.3	0	1	292	0.00	29.698 
01:30	36.5	36.5	36.5	88	33.3	0	1	292	0.00	29.688 
01:35	36.5	36.5	36.5	88	33.3	0	0	---	0.00	29.688 
01:40	36.5	36.5	36.5	88	33.3	0	0	---	0.00	29.688 
01:45	36.5	36.5	36.5	88	33.3	0	1	292	0.00	29.690 
01:50	36.5	36.5	36.5	88	33.3	0	0	---	0.00	29.690 
01:55	36.5	36.5	36.5	88	33.3	0	0	---	0.00	29.690 
02:00	36.5	36.5	36.5	88	33.3	0	1	292	0.00	29.693 
02:05	36.3	36.3	36.3	88	33.1	0	0	---	0.00	29.693 
02:10	36.3	36.3	36.3	89	33.4	0	0	---	0.00	29.693 
02:15	36.3	36.3	36.3	88	33.1	0	0	---	0.00	29.691 
02:20	36.2	36.2	36.2	88	33.0	0	0	---	0.00	29.691 
02:25	35.9	35.9	35.9	88	32.7	0	1	292	0.00	29.691 
02:30	35.9	35.9	35.9	89	33.0	0	1	292	0.00	29.699 
02:35	35.8	35.8	35.8	89	32.9	0	1	292	0.00	29.699 
02:40	35.8	35.8	35.8	89	32.9	0	0	---	0.00	29.699 
02:45	35.6	35.6	35.6	89	32.7	0	1	292	0.00	29.699 
02:50	35.5	35.5	35.5	89	32.6	0	0	---	0.00	29.699 
02:55	35.5	35.5	35.5	89	32.6	0	0	---	0.00	29.699 
03:00	35.5	35.5	35.5	89	32.6	0	0	---	0.00	29.698 
03:05	35.3	35.3	35.3	89	32.4	0	0	---	0.00	29.698 
03:10	35.2	35.2	35.2	89	32.3	0	0	---	0.00	29.698 
03:15	35.0	35.0	35.0	89	32.1	0	0	---	0.00	29.697 
03:20	35.0	35.0	35.0	89	32.1	0	0	---	0.00	29.697 
03:25	35.0	35.0	35.0	89	32.1	0	0	---	0.00	29.697 
03:30	34.9	34.9	34.9	89	32.0	0	0	---	0.00	29.691 
03:35	34.9	34.9	34.9	89	32.0	0	0	---	0.00	29.691 
03:40	34.7	34.7	34.7	90	32.1	0	0	---	0.00	29.691 
03:45	34.7	34.7	34.7	90	32.1	0	0	---	0.00	29.693 
03:50	34.6	34.6	34.6	90	32.0	0	0	---	0.00	29.693 
03:55	34.6	34.6	34.6	90	32.0	0	0	---	0.00	29.693 
04:00	34.6	34.6	34.6	90	32.0	0	1	292	0.00	29.693 
04:05	34.6	34.6	34.6	90	32.0	0	1	292	0.00	29.693 
04:10	34.7	34.7	34.7	90	32.1	0	1	292	0.00	29.693 
04:15	34.9	34.9	34.9	90	32.3	0	0	---	0.00	29.688 
04:20	34.9	34.9	34.9	90	32.3	0	1	292	0.00	29.688 
04:25	34.9	34.9	34.9	90	32.3	0	0	---	0.00	29.688 
04:30	34.9	34.9	34.9	90	32.3	0	0	---	0.00	29.684 
04:35	34.9	34.9	34.9	90	32.3	0	0	---	0.00	29.684 
04:40	34.9	34.9	34.9	90	32.3	0	0	---	0.00	29.684 
04:45	34.7	34.7	34.7	90	32.1	0	0	---	0.00	29.685 
04:50	34.7	34.7	34.7	90	32.1	0	0	---	0.00	29.685 
04:55	34.7	34.7	34.7	90	32.1	0	0	---	0.00	29.685 
05:00	34.7	34.7	34.7	90	32.1	0	0	---	0.00	29.696 
05:05	34.7	34.7	34.7	90	32.1	0	0	---	0.00	29.696 
05:10	34.7	34.7	34.7	90	32.1	0	0	---	0.00	29.696 
05:15	34.7	34.7	34.7	90	32.1	0	0	---	0.00	29.697 
05:20	34.6	34.6	34.6	90	32.0	0	0	---	0.00	29.697 
05:25	34.6	34.6	34.6	90	32.0	0	0	---	0.00	29.697 
05:30	34.4	34.4	34.4	90	31.8	0	0	---	0.00	29.697 
05:35	34.4	34.4	34.4	90	31.8	0	0	---	0.00	29.697 
05:40	34.4	34.4	34.4	90	31.8	0	0	---	0.00	29.697 
05:45	34.3	34.3	34.3	90	31.7	0	0	---	0.00	29.701 
05:50	34.3	34.3	34.3	90	31.7	0	0	---	0.00	29.701 
05:55	34.3	34.3	34.3	91	32.0	0	0	---	0.00	29.701 
06:00	34.3	34.3	34.3	91	32.0	0	0	---	0.00	29.702 
06:05	34.3	34.3	34.3	91	32.0	0	0	---	0.00	29.702 
06:10	34.3	34.3	34.3	91	32.0	0	0	---	0.00	29.702 
06:15	34.3	34.3	34.3	91	32.0	0	0	---	0.00	29.704 
06:20	34.3	34.3	34.3	91	32.0	0	0	---	0.00	29.704 
06:25	34.3	34.3	34.3	91	32.0	0	1	292	0.00	29.704 
06:30	34.3	34.3	34.3	91	32.0	0	2	292	0.00	29.705 
06:35	34.3	34.3	34.3	91	32.0	0	1	292	0.00	29.705 
06:40	34.1	34.1	34.1	91	31.8	0	0	---	0.00	29.705 
06:45	34.1	34.1	34.1	91	31.8	0	1	292	0.00	29.712 
06:50	34.1	34.1	34.1	91	31.8	0	0	---	0.00	29.712 
06:55	34.1	34.1	34.1	91	31.8	0	0	---	0.00	29.712 
07:00	34.1	34.1	34.1	91	31.8	0	0	---	0.00	29.716 
07:05	34.1	34.1	34.1	91	31.8	0	1	292	0.00	29.716 
07:10	34.1	34.1	34.1	91	31.8	0	1	292	0.00	29.716 
07:15	34.1	34.1	34.1	91	31.8	0	1	292	0.00	29.712 
07:20	34.1	34.1	34.1	91	31.8	0	0	---	0.00	29.712 
07:25	34.1	34.1	34.1	91	31.8	0	0	---	0.00	29.712 
07:30	34.1	34.1	34.1	91	31.8	0	0	---	0.00	29.720 
07:35	34.1	34.1	34.1	91	31.8	0	0	---	0.00	29.720 
07:40	34.1	34.1	34.1	91	31.8	0	0	---	0.00	29.720 
07:45	34.0	34.0	34.0	91	31.7	0	0	---	0.00	29.724 
07:50	34.0	34.0	34.0	91	31.7	0	1	292	0.00	29.724 
07:55	34.0	34.0	34.0	91	31.7	0	2	292	0.00	29.724 
08:00	34.0	34.0	34.0	91	31.7	0	3	292	0.00	29.726 
08:05	34.0	34.0	34.0	91	31.7	0	1	292	0.00	29.726 
08:10	34.0	34.0	34.0	91	31.7	0	1	292	0.00	29.726 
08:15	34.0	34.0	34.0	91	31.7	0	1	292	0.00	29.732 
08:20	34.0	34.0	34.0	91	31.7	0	0	---	0.00	29.732 
08:25	34.0	34.0	34.0	91	31.7	0	2	292	0.00	29.732 
08:30	34.0	34.0	34.0	91	31.7	0	2	292	0.00	29.733 
08:35	34.0	34.0	34.0	91	31.7	0	1	292	0.00	29.733 
08:40	34.0	34.0	34.0	91	31.7	0	0	---	0.00	29.733 
08:45	34.0	34.0	34.0	91	31.7	1	3	292	0.00	29.734 
08:50	34.0	34.0	34.0	91	31.7	0	3	292	0.00	29.734 
08:55	34.1	34.1	34.1	91	31.8	0	2	292	0.00	29.734 
09:00	34.1	34.1	34.1	91	31.8	1	3	292	0.00	29.742 
09:05	34.1	34.1	34.1	91	31.8	0	3	292	0.00	29.742 
09:10	34.3	34.3	34.3	91	32.0	0	2	292	0.00	29.742 
09:15	34.3	34.3	34.3	91	32.0	0	2	292	0.00	29.746 
09:20	34.3	34.3	34.3	91	32.0	1	3	292	0.00	29.746 
09:25	34.3	34.3	34.3	91	32.0	0	3	292	0.00	29.746 
09:30	34.3	34.3	34.3	91	32.0	1	3	292	0.00	29.750 
09:35	34.3	34.3	34.3	91	32.0	2	4	90	0.00	29.750 
09:40	34.3	34.3	34.3	91	32.0	1	9	68	0.00	29.750 
09:45	34.4	34.4	34.4	91	32.0	1	4	90	0.00	29.750 
09:50	34.4	34.4	34.4	91	32.0	2	6	112	0.00	29.750 
09:55	34.4	34.4	34.4	92	32.3	3	12	90	0.00	29.750 
10:00	34.4	34.4	34.4	92	32.3	2	6	112	0.00	29.753 
10:05	34.4	29.9	34.4	92	32.3	5	12	112	0.00	29.753 
10:10	34.3	30.7	34.3	92	32.2	4	10	112	0.00	29.753 
10:15	34.3	30.7	34.3	92	32.2	4	12	90	0.00	29.760 
10:20	34.3	29.8	34.3	92	32.2	5	14	90	0.00	29.760 
10:25	33.8	33.8	33.8	92	31.7	3	12	112	0.00	29.760 
10:30	33.1	28.4	33.1	92	31.0	5	11	112	0.00	29.769 
10:35	32.5	26.1	32.5	92	30.4	7	19	90	0.00	29.769 
10:40	31.9	25.4	31.9	92	29.8	7	15	112	0.00	29.769 
10:45	31.3	25.4	31.3	92	29.3	6	14	112	0.00	29.780 
10:50	31.2	26.1	31.2	92	29.2	5	13	90	0.00	29.780 
10:55	30.6	24.6	30.6	92	28.6	6	17	112	0.00	29.780 
11:00	30.3	24.2	30.3	92	28.3	6	17	112	0.00	29.785 
11:05	29.8	22.8	29.8	91	27.5	7	18	112	0.00	29.785 
11:10	29.4	22.4	29.4	91	27.1	7	18	90	0.00	29.785 
11:15	29.3	22.2	29.3	91	27.0	7	16	90	0.00	29.790 
11:20	29.1	22.0	29.1	90	26.5	7	17	90	0.00	29.790 
11:25	28.8	20.9	28.8	90	26.2	8	16	112	0.00	29.790 
11:30	28.7	22.3	28.7	90	26.1	6	16	112	0.00	29.796 
11:35	28.7	22.3	28.7	90	26.1	6	14	90	0.00	29.796 
11:40	28.4	21.2	28.4	90	25.8	7	14	112	0.00	29.796 
11:45	28.2	20.9	28.2	90	25.7	7	15	90	0.00	29.792 
11:50	28.4	21.9	28.4	90	25.8	6	15	112	0.00	29.792 
11:55	28.1	20.8	28.1	90	25.6	7	17	112	0.00	29.792 
12:00	27.9	21.3	27.9	89	25.1	6	12	90	0.00	29.793 
12:05	27.8	23.2	27.8	89	25.0	4	12	112	0.00	29.793 
12:10	27.8	22.1	27.8	89	25.0	5	11	112	0.00	29.793 
12:15	27.6	21.9	27.6	89	24.8	5	14	112	0.00	29.794 
12:20	27.6	21.9	27.6	89	24.8	5	12	90	0.00	29.794 
12:25	27.3	20.6	27.3	89	24.5	6	15	112	0.00	29.794 
12:30	27.2	21.4	27.2	90	24.7	5	14	112	0.00	29.793 
12:35	27.0	20.3	27.0	89	24.2	6	15	112	0.00	29.793 
12:40	26.6	18.3	26.6	89	23.8	8	16	112	0.00	29.793 
12:45	26.6	20.7	26.6	90	24.1	5	14	112	0.00	29.789 
12:50	26.4	17.4	26.4	90	23.9	9	19	112	0.00	29.789 
12:55	26.4	18.7	26.4	90	23.9	7	15	112	0.00	29.789 
13:00	26.4	20.5	26.4	90	23.9	5	13	90	0.00	29.788 
13:05	26.4	20.5	26.4	90	23.9	5	14	90	0.00	29.788 
13:10	26.3	18.6	26.3	90	23.8	7	16	112	0.00	29.788 
13:15	26.3	19.4	26.3	90	23.8	6	14	112	0.00	29.786 
13:20	26.4	20.5	26.4	90	23.9	5	16	112	0.00	29.786 
13:25	26.3	21.5	26.3	90	23.8	4	17	112	0.00	29.786 
13:30	26.3	20.4	26.3	90	23.8	5	11	112	0.00	29.783 
13:35	26.1	19.2	26.1	90	23.6	6	14	90	0.00	29.783 
13:40	26.1	19.2	26.1	89	23.3	6	15	112	0.00	29.783 
13:45	26.1	21.3	26.1	90	23.6	4	14	90	0.00	29.781 
13:50	26.1	20.1	26.1	89	23.3	5	13	112	0.00	29.781 
13:55	26.0	21.1	26.0	90	23.5	4	10	112	0.00	29.781 
14:00	25.8	20.9	25.8	89	23.0	4	13	90	0.00	29.776 
14:05	25.8	19.8	25.8	90	23.3	5	12	112	0.00	29.776 
14:10	25.8	18.8	25.8	89	23.0	6	16	90	0.00	29.776 
14:15	25.8	20.9	25.8	90	23.3	4	12	90	0.00	29.775 
14:20	26.0	26.0	26.0	90	23.5	3	12	90	0.00	29.775 
14:25	25.8	18.0	25.8	90	23.3	7	14	90	0.00	29.775 
14:30	25.6	17.8	25.6	89	22.8	7	18	112	0.00	29.778 
14:35	25.4	20.5	25.4	90	22.9	4	11	90	0.00	29.778 
14:40	25.4	20.5	25.4	90	22.9	4	10	90	0.00	29.778 
14:45	25.6	25.6	25.6	90	23.1	3	10	90	0.00	29.782 
14:50	25.4	19.3	25.4	89	22.6	5	16	112	0.00	29.782 
14:55	25.3	18.3	25.3	89	22.5	6	14	112	0.00	29.782 
15:00	25.3	25.3	25.3	89	22.5	3	11	112	0.00	29.784 
15:05	25.0	20.0	25.0	89	22.2	4	14	90	0.00	29.784 
15:10	24.8	17.7	24.8	89	22.0	6	16	112	0.00	29.784 
15:15	24.8	19.8	24.8	89	22.0	4	12	90	0.00	29.791 
15:20	24.7	24.7	24.7	89	21.9	3	9	112	0.00	29.791 
15:25	24.7	19.6	24.7	89	21.9	4	9	112	0.00	29.791 
15:30	24.5	24.5	24.5	89	21.7	3	11	90	0.00	29.804 
15:35	24.4	24.4	24.4	90	21.9	3	11	90	0.00	29.804 
15:40	24.4	18.1	24.4	89	21.6	5	12	90	0.00	29.804 
15:45	24.4	24.4	24.4	90	21.9	2	6	45	0.00	29.807 
15:50	24.1	19.0	24.1	89	21.3	4	12	90	0.00	29.807 
15:55	23.8	23.8	23.8	89	21.0	3	15	90	0.00	29.807 
16:00	23.6	23.6	23.6	89	20.8	3	13	22	0.00	29.813 
16:05	23.6	23.6	23.6	89	20.8	3	11	0	0.00	29.813 
16:10	23.3	23.3	23.3	89	20.5	3	7	22	0.00	29.813 
16:15	23.2	17.9	23.2	89	20.4	4	12	112	0.00	29.821 
16:20	23.2	23.2	23.2	89	20.4	3	12	90	0.00	29.821 
16:25	23.2	23.2	23.2	89	20.4	2	7	112	0.00	29.821 
16:30	23.2	23.2	23.2	89	20.4	3	12	112	0.00	29.824 
16:35	23.2	23.2	23.2	90	20.7	3	10	112	0.00	29.824 
16:40	23.2	23.2	23.2	90	20.7	3	11	112	0.00	29.824 
16:45	23.0	17.7	23.0	90	20.5	4	17	112	0.00	29.832 
16:50	22.9	22.9	22.9	90	20.4	3	14	112	0.00	29.832 
16:55	22.4	13.9	22.4	90	19.9	7	16	112	0.00	29.832 
17:00	22.2	16.8	22.2	90	19.7	4	11	112	0.00	29.842 
17:05	22.1	16.6	22.1	90	19.6	4	13	45	0.00	29.842 
17:10	21.9	15.2	21.9	90	19.4	5	14	112	0.00	29.842 
17:15	21.8	16.3	21.8	90	19.3	4	17	90	0.00	29.845 
17:20	21.8	21.8	21.8	90	19.3	3	8	112	0.00	29.845 
17:25	21.8	21.8	21.8	90	19.3	3	7	112	0.00	29.845 
17:30	21.6	21.6	21.6	90	19.1	3	11	112	0.00	29.847 
17:35	21.6	21.6	21.6	90	19.1	2	9	45	0.00	29.847 
17:40	21.6	21.6	21.6	91	19.4	3	14	112	0.00	29.847 
17:45	21.6	21.6	21.6	91	19.4	3	7	112	0.00	29.856 
17:50	21.8	21.8	21.8	91	19.6	1	4	112	0.00	29.856 
17:55	21.6	21.6	21.6	91	19.4	2	7	45	0.00	29.856 
18:00	21.4	21.4	21.4	90	18.9	2	10	45	0.00	29.859 
18:05	21.1	21.1	21.1	90	18.6	3	10	68	0.00	29.859 
18:10	21.0	15.4	21.0	90	18.5	4	10	90	0.00	29.859 
18:15	20.8	15.1	20.8	90	18.3	4	14	112	0.00	29.869 
18:20	20.8	20.8	20.8	90	18.3	3	11	112	0.00	29.869 
18:25	20.8	20.8	20.8	90	18.3	2	10	112	0.00	29.869 
18:30	20.8	20.8	20.8	90	18.3	2	6	90	0.00	29.873 
18:35	20.6	14.9	20.6	90	18.1	4	10	112	0.00	29.873 
18:40	20.5	20.5	20.5	90	18.0	2	9	112	0.00	29.873 
18:45	20.5	20.5	20.5	90	18.0	2	8	112	0.00	29.876 
18:50	20.3	20.3	20.3	90	17.8	2	6	112	0.00	29.876 
18:55	20.3	20.3	20.3	90	17.8	2	6	90	0.00	29.876 
19:00	20.3	20.3	20.3	90	17.8	3	9	90	0.00	29.889 
19:05	20.2	20.2	20.2	90	17.7	3	10	112	0.00	29.889 
19:10	20.2	20.2	20.2	90	17.7	3	11	112	0.00	29.889 
19:15	20.0	14.2	20.0	89	17.3	4	13	112	0.00	29.894 
19:20	20.0	20.0	20.0	89	17.3	3	12	112	0.00	29.894 
19:25	20.0	14.2	20.0	89	17.3	4	12	90	0.00	29.894 
19:30	20.0	20.0	20.0	89	17.3	3	10	90	0.00	29.901 
19:35	19.9	14.1	19.9	89	17.2	4	12	112	0.00	29.901 
19:40	19.9	19.9	19.9	89	17.2	2	10	90	0.00	29.901 
19:45	19.9	19.9	19.9	89	17.2	3	13	90	0.00	29.903 
19:50	19.9	19.9	19.9	88	16.9	2	7	90	0.00	29.903 
19:55	19.9	19.9	19.9	88	16.9	2	7	90	0.00	29.903 
20:00	19.9	19.9	19.9	88	16.9	3	9	112	0.00	29.904 
20:05	19.9	19.9	19.9	88	16.9	3	9	22	0.00	29.904 
20:10	19.9	19.9	19.9	89	17.2	3	16	112	0.00	29.904 
20:15	19.9	19.9	19.9	89	17.2	1	7	45	0.00	29.907 
20:20	19.9	19.9	19.9	89	17.2	3	10	90	0.00	29.907 
20:25	19.9	19.9	19.9	89	17.2	3	9	90	0.00	29.907 
20:30	19.9	19.9	19.9	89	17.2	2	9	90	0.00	29.907 
20:35	19.7	19.7	19.7	89	17.0	3	7	112	0.00	29.907 
20:40	19.7	19.7	19.7	88	16.7	2	7	112	0.00	29.907 
20:45	19.7	19.7	19.7	89	17.0	2	9	90	0.00	29.913 
20:50	19.7	19.7	19.7	88	16.7	2	12	90	0.00	29.913 
20:55	19.5	19.5	19.5	88	16.5	2	9	112	0.00	29.913 
21:00	19.5	19.5	19.5	88	16.5	2	7	45	0.00	29.914 
21:05	19.5	19.5	19.5	88	16.5	2	7	90	0.00	29.914 
21:10	19.5	19.5	19.5	88	16.5	2	7	112	0.00	29.914 
21:15	19.4	19.4	19.4	88	16.4	2	11	45	0.00	29.921 
21:20	19.2	19.2	19.2	88	16.2	2	6	45	0.00	29.921 
21:25	19.2	19.2	19.2	88	16.2	2	10	90	0.00	29.921 
21:30	19.1	19.1	19.1	87	15.9	3	10	112	0.00	29.923 
21:35	18.9	12.9	18.9	87	15.7	4	9	45	0.00	29.923 
21:40	18.8	18.8	18.8	86	15.3	3	11	68	0.00	29.923 
21:45	18.6	18.6	18.6	86	15.1	3	7	112	0.00	29.926 
21:50	18.6	18.6	18.6	85	14.9	3	7	45	0.00	29.926 
21:55	18.6	18.6	18.6	85	14.9	3	9	68	0.00	29.926 
22:00	18.6	18.6	18.6	85	14.9	2	7	112	0.00	29.925 
22:05	18.6	18.6	18.6	85	14.9	3	10	112	0.00	29.925 
22:10	18.6	18.6	18.6	85	14.9	2	7	90	0.00	29.925 
22:15	18.6	18.6	18.6	85	14.9	1	4	68	0.00	29.928 
22:20	18.6	18.6	18.6	85	14.9	2	7	112	0.00	29.928 
22:25	18.6	18.6	18.6	85	14.9	1	5	45	0.00	29.928 
22:30	18.6	18.6	18.6	85	14.9	1	6	112	0.00	29.929 
22:35	18.6	18.6	18.6	85	14.9	2	5	90	0.00	29.929 
22:40	18.6	18.6	18.6	85	14.9	3	12	90	0.00	29.929 
22:45	18.6	18.6	18.6	84	14.6	2	12	112	0.00	29.926 
22:50	18.6	18.6	18.6	84	14.6	2	9	112	0.00	29.926 
22:55	18.6	18.6	18.6	84	14.6	2	6	112	0.00	29.926 
23:00	18.6	18.6	18.6	84	14.6	2	7	90	0.00	29.927 
23:05	18.6	18.6	18.6	84	14.6	3	11	112	0.00	29.927 
23:10	18.6	18.6	18.6	84	14.6	1	6	112	0.00	29.927 
23:15	18.6	18.6	18.6	84	14.6	1	3	45	0.00	29.933 
23:20	18.8	18.8	18.8	84	14.8	0	2	45	0.00	29.933 
23:25	18.8	18.8	18.8	84	14.8	1	4	90	0.00	29.933 
23:30	18.8	18.8	18.8	84	14.8	1	3	90	0.00	29.939 
23:35	18.8	18.8	18.8	84	14.8	0	2	90	0.00	29.939 
23:40	18.8	18.8	18.8	84	14.8	1	3	45	0.00	29.939 
23:45	18.9	18.9	18.9	84	14.9	1	9	45	0.00	29.944 
23:50	18.9	18.9	18.9	83	14.6	1	7	68	0.00	29.944 
23:55	18.8	18.8	18.8	82	14.2	2	7	22	0.00	29.944 

CoCoRaHS
IN-AL-39
A2 Web Hosting
Creative Commons License
GoDaddy
search engine by freefind advanced

loaded 2018-11-15 16:48:28 • last modified 2010-11-18 10:43:29
Privacy PolicyDisclaimer
• wx.awcolley.com is powered by PmWiki v.2002016 •
• all content (unless otherwise noted) © 2018 A W Colley